createdAt,value
2018-10-05T08:51:03.758Z,5.17
2018-10-05T08:53:32.226Z,5.10
2018-10-05T08:56:00.761Z,5.50
2018-10-05T08:58:29.270Z,6.13
2018-10-05T09:00:57.750Z,6.10
2018-10-05T09:03:26.219Z,5.50
2018-10-05T09:05:54.759Z,5.20
2018-10-05T09:08:23.169Z,5.80
2018-10-05T09:10:51.675Z,4.63
2018-10-05T09:13:20.130Z,6.50
2018-10-05T09:15:48.572Z,4.90
2018-10-05T09:18:17.156Z,5.80
2018-10-05T09:20:45.522Z,5.10
2018-10-05T09:23:13.950Z,4.97
2018-10-05T09:25:42.398Z,4.40
2018-10-05T09:28:10.849Z,5.10
2018-10-05T09:30:39.325Z,4.93
2018-10-05T09:33:07.906Z,5.40
2018-10-05T09:35:36.384Z,5.13
2018-10-05T09:38:04.850Z,5.80
2018-10-05T09:40:33.374Z,4.50
2018-10-05T09:43:01.846Z,4.60
2018-10-05T09:45:30.289Z,5.53
2018-10-05T09:47:58.770Z,5.73
2018-10-05T09:50:27.263Z,5.77
2018-10-05T09:52:55.694Z,4.83
2018-10-05T09:55:24.159Z,5.70
2018-10-05T09:57:54.628Z,4.90
2018-10-05T10:00:28.486Z,4.57
2018-10-05T10:03:04.282Z,5.17
2018-10-05T10:05:32.765Z,5.53
2018-10-05T10:08:01.247Z,6.03
2018-10-05T10:10:29.627Z,5.50
2018-10-05T10:12:58.054Z,6.77
2018-10-05T10:15:26.542Z,4.50
2018-10-05T10:17:55.017Z,4.80
2018-10-05T10:20:23.489Z,6.13
2018-10-05T10:22:51.993Z,5.00
2018-10-05T10:25:20.480Z,5.10
2018-10-05T10:27:49.358Z,5.50
2018-10-05T10:30:17.802Z,5.77
2018-10-05T10:32:46.256Z,4.70
2018-10-05T10:35:14.780Z,5.03
2018-10-05T10:37:43.240Z,4.70
2018-10-05T10:40:11.808Z,5.20
2018-10-05T10:42:40.425Z,5.37
2018-10-05T10:45:09.492Z,4.50
2018-10-05T10:47:37.976Z,5.20
2018-10-05T10:50:06.549Z,4.93
2018-10-05T10:52:35.103Z,4.27
2018-10-05T10:55:03.592Z,4.73
2018-10-05T10:57:32.064Z,4.63
2018-10-05T11:00:00.202Z,5.57
2018-10-05T11:02:28.695Z,4.40
2018-10-05T11:04:57.159Z,3.63
2018-10-05T11:07:25.763Z,5.10
2018-10-05T11:09:54.185Z,4.10
2018-10-05T11:12:22.931Z,4.40
2018-10-05T11:14:51.374Z,4.40
2018-10-05T11:17:19.864Z,4.50
2018-10-05T11:19:48.310Z,5.07
2018-10-05T11:22:16.794Z,4.00
2018-10-05T11:24:45.254Z,4.13
2018-10-05T11:27:13.712Z,4.33
2018-10-05T11:29:42.232Z,4.07
2018-10-05T11:32:10.730Z,4.37
2018-10-05T11:34:39.183Z,6.00
2018-10-05T11:37:07.880Z,3.90
2018-10-05T11:39:36.305Z,5.20
2018-10-05T11:42:04.788Z,4.33
2018-10-05T11:44:33.233Z,4.73
2018-10-05T11:47:01.702Z,4.53
2018-10-05T11:49:30.212Z,4.80
2018-10-05T11:51:58.743Z,4.90
2018-10-05T11:54:27.191Z,3.60
2018-10-05T11:56:55.752Z,3.13
2018-10-05T11:59:24.510Z,4.30
2018-10-05T12:01:52.970Z,4.40
2018-10-05T12:04:21.421Z,4.20
2018-10-05T12:06:49.877Z,4.07
2018-10-05T12:09:18.363Z,4.07
2018-10-05T12:11:46.843Z,3.70
2018-10-05T12:14:15.332Z,3.67
2018-10-05T12:16:43.786Z,3.63
2018-10-05T12:19:12.253Z,3.60
2018-10-05T12:21:40.678Z,3.90
2018-10-05T12:24:09.171Z,3.90
2018-10-05T12:26:37.668Z,3.73
2018-10-05T12:29:06.141Z,3.13
2018-10-05T12:31:34.600Z,3.73
2018-10-05T12:34:03.119Z,3.50
2018-10-05T12:36:31.551Z,3.90
2018-10-05T12:39:00.005Z,3.43
2018-10-05T12:41:28.485Z,3.17
2018-10-05T12:43:56.946Z,3.53
2018-10-05T12:46:25.384Z,3.83
2018-10-05T12:48:53.851Z,3.40
2018-10-05T12:51:22.282Z,3.30
2018-10-05T12:53:50.734Z,3.63
2018-10-05T12:56:19.188Z,2.93
2018-10-05T12:58:47.688Z,3.20
2018-10-05T13:01:16.151Z,3.40
2018-10-05T13:03:44.614Z,3.20
2018-10-05T13:06:13.051Z,2.90
2018-10-05T13:08:41.542Z,3.27
2018-10-05T13:11:09.965Z,3.23
2018-10-05T13:13:38.432Z,3.50
2018-10-05T13:16:07.514Z,3.63
2018-10-05T13:18:35.954Z,3.40
2018-10-05T13:21:04.413Z,3.23
2018-10-05T13:23:32.871Z,2.90
2018-10-05T13:26:01.325Z,3.67
2018-10-05T13:28:29.811Z,3.03
2018-10-05T13:30:58.229Z,3.60
2018-10-05T13:33:26.680Z,3.47
2018-10-05T13:35:55.128Z,3.80
2018-10-05T13:38:23.590Z,3.40
2018-10-05T13:40:52.051Z,3.47
2018-10-05T13:43:20.495Z,3.00
2018-10-05T13:45:49.053Z,3.43
2018-10-05T13:48:17.496Z,2.93
2018-10-05T13:50:45.995Z,3.30
2018-10-05T13:53:14.449Z,2.77
2018-10-05T13:55:42.887Z,4.73
2018-10-05T13:58:11.377Z,3.23
2018-10-05T14:00:39.847Z,3.60
2018-10-05T14:03:08.310Z,3.70
2018-10-05T14:05:36.770Z,3.50
2018-10-05T14:08:05.303Z,3.13
2018-10-05T14:10:33.490Z,3.67
2018-10-05T14:13:01.920Z,2.93
2018-10-05T14:15:31.048Z,3.07
2018-10-05T14:17:59.496Z,3.00
2018-10-05T14:20:27.981Z,3.93
2018-10-05T14:22:56.469Z,3.20
2018-10-05T14:25:24.982Z,3.27
2018-10-05T14:27:53.403Z,3.30
2018-10-05T14:30:21.821Z,5.90
2018-10-05T14:32:50.432Z,8.40
2018-10-05T14:35:19.214Z,5.33
2018-10-05T14:37:48.197Z,3.37
2018-10-05T14:40:16.773Z,3.07
2018-10-05T14:42:45.264Z,4.33
2018-10-05T14:45:13.738Z,3.40
2018-10-05T14:47:42.198Z,2.97
2018-10-05T14:50:10.673Z,3.07
2018-10-05T14:52:39.249Z,4.07
2018-10-05T14:55:07.815Z,3.53
2018-10-05T14:57:36.382Z,3.07
2018-10-05T15:00:05.345Z,3.00
2018-10-05T15:02:34.024Z,3.57
2018-10-05T15:05:02.449Z,3.50
2018-10-05T15:07:30.961Z,3.30
2018-10-05T15:09:59.407Z,3.00
2018-10-05T15:12:27.825Z,2.80
2018-10-05T15:14:56.297Z,3.20
2018-10-05T15:17:24.976Z,2.60
2018-10-05T15:19:53.951Z,3.60
2018-10-05T15:22:22.416Z,3.47
2018-10-05T15:24:50.856Z,3.03
2018-10-05T15:27:19.296Z,2.90
2018-10-05T15:29:47.782Z,3.60
2018-10-05T15:32:16.234Z,2.97
2018-10-05T15:34:44.729Z,2.87
2018-10-05T15:37:13.246Z,4.10
2018-10-05T15:39:41.793Z,3.17
2018-10-05T15:42:10.241Z,3.30
2018-10-05T15:44:38.717Z,3.23
2018-10-05T15:47:08.430Z,3.40
2018-10-05T15:49:37.488Z,4.20
2018-10-05T15:52:06.016Z,3.70
2018-10-05T15:54:34.499Z,3.10
2018-10-05T15:57:03.023Z,3.50
2018-10-05T15:59:32.320Z,4.17
2018-10-05T16:02:01.767Z,3.80
2018-10-05T16:04:30.616Z,3.80
2018-10-05T16:06:59.161Z,4.10
2018-10-05T16:09:27.863Z,3.13
2018-10-05T16:11:56.384Z,3.70
2018-10-05T16:14:24.864Z,3.27
2018-10-05T16:16:53.329Z,3.30
2018-10-05T16:19:21.922Z,3.90
2018-10-05T16:21:50.387Z,4.20
2018-10-05T16:24:37.545Z,3.50
2018-10-05T16:27:06.180Z,3.03
2018-10-05T16:29:35.069Z,3.00
2018-10-05T16:34:09.418Z,3.83
2018-10-05T16:36:37.970Z,4.40
2018-10-05T16:39:08.023Z,4.77
2018-10-05T16:41:36.463Z,3.27
2018-10-05T16:44:04.920Z,4.00
2018-10-05T16:46:33.510Z,3.80
2018-10-05T16:49:01.979Z,4.63
2018-10-05T16:51:30.433Z,4.63
2018-10-05T16:53:59.009Z,3.97
2018-10-05T16:56:27.471Z,4.80
2018-10-05T16:58:55.963Z,5.73
2018-10-05T17:01:24.399Z,5.00
2018-10-05T17:03:52.965Z,6.33
2018-10-05T17:06:21.394Z,5.97
2018-10-05T17:08:51.829Z,6.10
2018-10-05T17:11:20.350Z,4.83
2018-10-05T17:13:48.777Z,6.80
2018-10-05T17:16:17.229Z,6.67
2018-10-05T17:18:45.684Z,7.10
2018-10-05T17:21:14.124Z,8.03
2018-10-05T17:23:42.645Z,8.00
2018-10-05T17:26:11.082Z,8.17
2018-10-05T17:28:39.512Z,7.77
2018-10-05T17:31:08.257Z,8.03
2018-10-05T17:33:36.725Z,8.00
2018-10-05T17:36:05.233Z,6.90
2018-10-05T17:38:34.064Z,8.20
2018-10-05T17:41:02.569Z,7.17
2018-10-05T17:43:31.011Z,6.10
2018-10-05T17:45:59.458Z,8.20
2018-10-05T17:48:27.946Z,7.30
2018-10-05T17:50:56.413Z,6.10
2018-10-05T17:53:24.836Z,5.53
2018-10-05T17:55:53.458Z,4.90
2018-10-05T17:58:21.805Z,6.67
2018-10-05T18:00:50.290Z,6.47
2018-10-05T18:03:18.766Z,6.00
2018-10-05T18:05:47.299Z,6.90
2018-10-05T18:08:15.848Z,6.30
2018-10-05T18:10:44.246Z,6.40
2018-10-05T18:13:12.676Z,7.80
2018-10-05T18:15:41.162Z,5.77
2018-10-05T18:18:09.602Z,7.23
2018-10-05T18:20:38.068Z,6.90
2018-10-05T18:23:06.618Z,7.20
2018-10-05T18:25:35.068Z,7.10
2018-10-05T18:28:03.530Z,7.20
2018-10-05T18:30:31.965Z,7.97
2018-10-05T18:33:00.424Z,7.37
2018-10-05T18:35:29.102Z,7.40
2018-10-05T18:37:57.567Z,10.37
2018-10-05T18:40:26.134Z,8.20
2018-10-05T18:42:54.590Z,10.13
2018-10-05T18:45:23.077Z,7.80
2018-10-05T18:47:51.575Z,8.03
2018-10-05T18:50:20.034Z,7.30
2018-10-05T18:52:48.526Z,10.87
2018-10-05T18:55:16.977Z,8.70
2018-10-05T18:57:45.549Z,9.53
2018-10-05T19:00:14.103Z,9.33
2018-10-05T19:02:42.681Z,10.17
2018-10-05T19:05:11.255Z,10.87
2018-10-05T19:07:39.746Z,16.30
2018-10-05T19:10:08.238Z,13.93
2018-10-05T19:12:36.830Z,11.13
2018-10-05T19:15:05.441Z,16.40
2018-10-05T19:17:33.888Z,11.90
2018-10-05T19:20:02.622Z,14.50
2018-10-05T19:22:31.230Z,10.80
2018-10-05T19:25:01.287Z,9.63
2018-10-05T19:27:29.989Z,10.60
2018-10-05T19:29:58.584Z,8.30
2018-10-05T19:32:27.103Z,9.57
2018-10-05T19:34:55.587Z,9.13
2018-10-05T19:37:24.182Z,8.07
2018-10-05T19:39:52.698Z,10.40
2018-10-05T19:42:21.309Z,8.50
2018-10-05T19:44:49.763Z,12.03
2018-10-05T19:47:18.237Z,11.17
2018-10-05T19:49:46.867Z,10.70
2018-10-05T19:52:15.438Z,10.40
2018-10-05T19:54:43.943Z,10.50
2018-10-05T19:57:12.460Z,11.83
2018-10-05T19:59:41.045Z,11.20
2018-10-05T20:02:09.543Z,11.20
2018-10-05T20:04:38.003Z,11.33
2018-10-05T20:07:06.528Z,11.23
2018-10-05T20:09:35.134Z,9.80
2018-10-05T20:12:03.644Z,8.33
2018-10-05T20:14:32.193Z,9.50
2018-10-05T20:17:00.738Z,9.73
2018-10-05T20:19:29.367Z,10.17
2018-10-05T20:21:57.898Z,9.33
2018-10-05T20:24:26.470Z,12.37
2018-10-05T20:26:54.971Z,11.53
2018-10-05T20:29:23.574Z,12.03
2018-10-05T20:31:52.141Z,12.50
2018-10-05T20:34:20.638Z,10.40
2018-10-05T20:36:49.402Z,11.70
2018-10-05T20:39:17.772Z,9.50
2018-10-05T20:41:46.535Z,9.27
2018-10-05T20:44:15.017Z,10.67
2018-10-05T20:46:43.518Z,10.20
2018-10-05T20:49:12.156Z,9.87
2018-10-05T20:51:40.802Z,10.13
2018-10-05T20:54:09.364Z,10.77
2018-10-05T20:56:37.879Z,10.83
2018-10-05T20:59:06.505Z,10.70
2018-10-05T21:01:35.023Z,10.00
2018-10-05T21:04:03.520Z,9.90
2018-10-05T21:06:31.993Z,12.23
2018-10-05T21:09:00.517Z,10.97
2018-10-05T21:11:29.101Z,10.70
2018-10-05T21:13:58.598Z,9.70
2018-10-05T21:16:27.162Z,9.30
2018-10-05T21:18:55.639Z,11.77
2018-10-05T21:21:24.143Z,9.20
2018-10-05T21:23:52.779Z,10.70
2018-10-05T21:26:21.425Z,11.13
2018-10-05T21:28:49.876Z,11.83
2018-10-05T21:31:18.622Z,10.03
2018-10-05T21:33:47.217Z,11.90
2018-10-05T21:36:15.808Z,11.03
2018-10-05T21:38:44.406Z,11.63
2018-10-05T21:41:12.740Z,11.07
2018-10-05T21:43:41.196Z,11.50
2018-10-05T21:46:09.968Z,11.67
2018-10-05T21:48:38.529Z,10.63
2018-10-05T21:51:06.992Z,9.70
2018-10-05T21:53:35.804Z,11.17
2018-10-05T21:56:04.343Z,11.00
2018-10-05T21:58:32.832Z,11.37
2018-10-05T22:01:01.306Z,11.30
2018-10-05T22:03:31.623Z,11.53
2018-10-05T22:06:00.372Z,10.30
2018-10-05T22:08:28.885Z,11.13
2018-10-05T22:10:57.750Z,10.80
2018-10-05T22:13:26.227Z,11.17
2018-10-05T22:15:54.818Z,11.17
2018-10-05T22:18:22.949Z,12.33
2018-10-05T22:20:51.397Z,12.60
2018-10-05T22:23:20.205Z,11.27
2018-10-05T22:25:48.661Z,12.10
2018-10-05T22:28:17.212Z,11.37
2018-10-05T22:30:45.750Z,11.73
2018-10-05T22:33:14.246Z,12.30
2018-10-05T22:35:42.723Z,11.93
2018-10-05T22:38:11.262Z,12.30
2018-10-05T22:40:39.734Z,11.37
2018-10-05T22:43:08.322Z,11.10
2018-10-05T22:45:36.790Z,11.40
2018-10-05T22:48:05.283Z,12.37
2018-10-05T22:50:33.842Z,11.93
2018-10-05T22:53:02.311Z,12.90
2018-10-05T22:55:30.786Z,11.90
2018-10-05T22:57:59.543Z,12.20
2018-10-05T23:00:28.069Z,11.13
2018-10-05T23:02:56.722Z,11.93
2018-10-05T23:05:25.179Z,13.00
2018-10-05T23:07:53.658Z,14.00
2018-10-05T23:10:22.166Z,13.13
2018-10-05T23:12:50.660Z,12.23
2018-10-05T23:15:19.117Z,12.00
2018-10-05T23:17:47.632Z,12.73
2018-10-05T23:20:19.186Z,12.00
2018-10-05T23:22:47.667Z,12.40
2018-10-05T23:25:16.158Z,12.53
2018-10-05T23:27:44.625Z,11.67
2018-10-05T23:30:13.118Z,13.80
2018-10-05T23:32:41.572Z,12.53
2018-10-05T23:35:10.053Z,12.97
2018-10-05T23:37:38.570Z,11.97
2018-10-05T23:40:07.118Z,13.73
2018-10-05T23:42:35.590Z,15.50
2018-10-05T23:45:04.181Z,12.57
2018-10-05T23:47:32.715Z,13.17
2018-10-05T23:50:01.233Z,14.63
2018-10-05T23:52:41.318Z,14.27
2018-10-05T23:55:09.857Z,15.53
2018-10-05T23:57:38.959Z,13.13
